Time;durP1;ratioP1;P1;durP2;ratioP2;P2;SDS_P1;SDS_P2;PMS_P1;PMS_P2;Temp;Humidity;BMP_temperature;BMP_pressure;BME280_temperature;BME280_humidity;BME280_pressure;Samples;Min_cycle;Max_cycle;Signal;HPM_P1;HPM_P2
2023/03/07 00:01:22;;;;;;;;;;;5.90;86.40;;;;;;5103717;28;19947;-89
2023/03/07 00:03:48;;;;;;;;;;;5.70;86.50;;;;;;5094874;28;20037;-89
2023/03/07 00:06:13;;;;;;;;;;;5.60;87.70;;;;;;5094969;28;20032;-89
2023/03/07 00:08:39;;;;;;;;;;;5.60;88.40;;;;;;5094914;28;20389;-88
2023/03/07 00:11:06;;;;;;;;;;;5.50;88.80;;;;;;5101987;28;20401;-88
2023/03/07 00:13:32;;;;;;;;;;;5.60;89.40;;;;;;5115181;28;19943;-90
2023/03/07 00:16:05;;;;;;;;;;;5.50;89.40;;;;;;5115141;28;19988;-88
2023/03/07 00:18:31;;;;;;;;;;;5.40;88.30;;;;;;5114948;28;20310;-88
2023/03/07 00:21:00;;;;;;;;;;;5.30;88.30;;;;;;5106502;28;19947;-87
2023/03/07 00:23:26;;;;;;;;;;;5.30;89.00;;;;;;5094585;28;19938;-88
2023/03/07 00:26:10;;;;;;;;;;;5.50;89.00;;;;;;5094557;28;19967;-89
2023/03/07 00:28:36;;;;;;;;;;;5.50;88.80;;;;;;5094471;28;19946;-88
2023/03/07 00:31:03;;;;;;;;;;;5.50;88.80;;;;;;5101174;28;19946;-89
2023/03/07 00:33:28;;;;;;;;;;;5.50;89.00;;;;;;5114767;28;20020;-89
2023/03/07 00:35:58;;;;;;;;;;;5.60;89.10;;;;;;5114728;28;20380;-90
2023/03/07 00:38:24;;;;;;;;;;;5.60;88.80;;;;;;5114590;28;19987;-88
2023/03/07 00:41:03;;;;;;;;;;;5.50;88.50;;;;;;5113763;28;19948;-89
2023/03/07 00:43:29;;;;;;;;;;;5.50;88.50;;;;;;5105567;28;20027;-89
2023/03/07 00:45:55;;;;;;;;;;;5.40;88.80;;;;;;5094161;28;19972;-88
2023/03/07 00:48:21;;;;;;;;;;;5.40;89.00;;;;;;5094122;28;19984;-88
2023/03/07 00:50:46;;;;;;;;;;;5.40;89.30;;;;;;5098846;28;19945;-89
2023/03/07 00:53:12;;;;;;;;;;;5.40;89.30;;;;;;5113865;28;20028;-89
2023/03/07 00:55:38;;;;;;;;;;;5.40;89.90;;;;;;5114327;28;20024;-88
2023/03/07 00:58:03;;;;;;;;;;;5.40;89.60;;;;;;5112939;28;20037;-88
2023/03/07 01:00:29;;;;;;;;;;;5.30;88.30;;;;;;5110408;28;19947;-88
2023/03/07 01:02:56;;;;;;;;;;;5.20;88.30;;;;;;5093911;28;19983;-88
2023/03/07 01:05:22;;;;;;;;;;;5.30;89.50;;;;;;5093791;28;20465;-88
2023/03/07 01:07:47;;;;;;;;;;;5.30;89.30;;;;;;5093795;28;19936;-89
2023/03/07 01:10:13;;;;;;;;;;;5.20;89.30;;;;;;5093621;28;19941;-89
2023/03/07 01:12:38;;;;;;;;;;;5.10;89.50;;;;;;5114294;28;19941;-88
2023/03/07 01:15:05;;;;;;;;;;;5.10;89.50;;;;;;5114045;28;19943;-88
2023/03/07 01:17:31;;;;;;;;;;;5.00;89.30;;;;;;5114162;28;19963;-89
2023/03/07 01:19:57;;;;;;;;;;;5.00;89.20;;;;;;5113937;28;20441;-88
2023/03/07 01:22:23;;;;;;;;;;;4.90;89.20;;;;;;5094867;28;19952;-89
2023/03/07 01:24:48;;;;;;;;;;;4.90;89.50;;;;;;5093509;28;19987;-89
2023/03/07 01:27:14;;;;;;;;;;;4.90;89.80;;;;;;5093457;28;19941;-88
2023/03/07 01:29:39;;;;;;;;;;;4.90;90.00;;;;;;5093472;28;19974;-88
2023/03/07 01:32:05;;;;;;;;;;;5.00;90.00;;;;;;5109001;28;19950;-89
2023/03/07 01:34:30;;;;;;;;;;;5.00;90.00;;;;;;5113752;28;19937;-88
2023/03/07 01:36:56;;;;;;;;;;;5.10;90.10;;;;;;5113577;28;20294;-88
2023/03/07 01:39:22;;;;;;;;;;;5.10;90.00;;;;;;5113673;28;19942;-88
2023/03/07 01:41:47;;;;;;;;;;;5.00;90.00;;;;;;5081756;28;20096;-88
2023/03/07 01:44:20;;;;;;;;;;;5.00;89.80;;;;;;5093289;28;19936;-88
2023/03/07 01:46:47;;;;;;;;;;;4.90;90.00;;;;;;5093194;28;19939;-88
2023/03/07 01:49:36;;;;;;;;;;;4.80;88.90;;;;;;5093502;28;19947;-88
2023/03/07 01:52:01;;;;;;;;;;;4.90;88.70;;;;;;5088441;28;20360;-88
2023/03/07 01:54:29;;;;;;;;;;;5.00;89.90;;;;;;5113510;28;19969;-88
2023/03/07 01:56:54;;;;;;;;;;;5.10;89.60;;;;;;5113679;28;20382;-89
2023/03/07 01:59:46;;;;;;;;;;;5.00;89.10;;;;;;5113448;28;19964;-88
2023/03/07 02:02:17;;;;;;;;;;;4.90;89.10;;;;;;5093602;28;19957;-88
2023/03/07 02:04:51;;;;;;;;;;;4.70;87.80;;;;;;5092879;28;20023;-88
2023/03/07 02:07:19;;;;;;;;;;;4.70;87.30;;;;;;5096661;28;20394;-89
2023/03/07 02:09:47;;;;;;;;;;;4.60;88.30;;;;;;5097438;28;19948;-88
2023/03/07 02:12:12;;;;;;;;;;;4.50;88.30;;;;;;5105225;28;19957;-88
2023/03/07 02:14:41;;;;;;;;;;;4.40;88.10;;;;;;5117481;28;19943;-89
2023/03/07 02:17:06;;;;;;;;;;;4.30;89.30;;;;;;5117386;28;19946;-88
2023/03/07 02:19:32;;;;;;;;;;;4.20;91.10;;;;;;5117431;28;19941;-88
2023/03/07 02:22:03;;;;;;;;;;;4.20;92.10;;;;;;5103301;28;20357;-88
2023/03/07 02:24:39;;;;;;;;;;;4.20;92.50;;;;;;5097111;28;19946;-89
2023/03/07 02:27:05;;;;;;;;;;;4.20;92.70;;;;;;5096862;28;20378;-87
2023/03/07 02:29:30;;;;;;;;;;;4.40;92.80;;;;;;5096791;28;20046;-88
2023/03/07 02:31:56;;;;;;;;;;;4.40;92.50;;;;;;5102600;28;20001;-88
2023/03/07 02:34:23;;;;;;;;;;;4.50;92.50;;;;;;5117109;28;19985;-88
2023/03/07 02:36:51;;;;;;;;;;;4.50;92.20;;;;;;5117060;28;20397;-88
2023/03/07 02:39:18;;;;;;;;;;;4.40;91.80;;;;;;5116919;28;20003;-88
2023/03/07 02:41:43;;;;;;;;;;;4.50;91.70;;;;;;5105384;28;19949;-88
2023/03/07 02:44:09;;;;;;;;;;;4.50;91.30;;;;;;5096501;28;19939;-88
2023/03/07 02:46:34;;;;;;;;;;;4.50;91.30;;;;;;5096455;28;19939;-88
2023/03/07 02:49:00;;;;;;;;;;;4.50;91.10;;;;;;5096447;28;19987;-88
2023/03/07 02:51:25;;;;;;;;;;;4.50;90.80;;;;;;5095698;28;19960;-88
2023/03/07 02:53:51;;;;;;;;;;;4.50;91.10;;;;;;5096316;28;19967;-88
2023/03/07 02:56:16;;;;;;;;;;;4.40;90.90;;;;;;5096279;28;20390;-89
2023/03/07 02:58:42;;;;;;;;;;;4.40;90.60;;;;;;5096174;28;19956;-88
2023/03/07 03:01:07;;;;;;;;;;;4.40;90.30;;;;;;5095883;28;19965;-87
2023/03/07 03:03:33;;;;;;;;;;;4.40;90.20;;;;;;5115770;28;20238;-88
2023/03/07 03:05:59;;;;;;;;;;;4.50;90.60;;;;;;5116776;28;20043;-87
2023/03/07 03:08:24;;;;;;;;;;;4.60;91.00;;;;;;5116464;28;20029;-87
2023/03/07 03:10:53;;;;;;;;;;;4.60;90.70;;;;;;5112886;28;20313;-87
2023/03/07 03:13:19;;;;;;;;;;;4.60;90.50;;;;;;5095978;28;19939;-88
2023/03/07 03:15:45;;;;;;;;;;;4.50;91.60;;;;;;5096255;28;19938;-88
2023/03/07 03:18:10;;;;;;;;;;;4.40;90.80;;;;;;5077417;28;20010;-87
2023/03/07 03:20:38;;;;;;;;;;;4.30;89.90;;;;;;5095588;28;19990;-88
2023/03/07 03:23:03;;;;;;;;;;;4.40;90.50;;;;;;5111450;28;20441;-87
2023/03/07 03:25:29;;;;;;;;;;;4.50;90.90;;;;;;5116135;28;19939;-87
2023/03/07 03:27:54;;;;;;;;;;;4.50;90.60;;;;;;5116061;28;19965;-88
2023/03/07 03:30:20;;;;;;;;;;;4.40;90.10;;;;;;5114751;28;19941;-88
2023/03/07 03:32:46;;;;;;;;;;;4.40;90.70;;;;;;5096785;28;19947;-88
2023/03/07 03:35:11;;;;;;;;;;;4.40;90.10;;;;;;5095833;28;20319;-88
2023/03/07 03:37:37;;;;;;;;;;;4.30;89.30;;;;;;5095435;28;20346;-88
2023/03/07 03:40:05;;;;;;;;;;;4.20;88.80;;;;;;5095724;28;19937;-88
2023/03/07 03:42:31;;;;;;;;;;;4.20;89.70;;;;;;5106022;28;20296;-88
2023/03/07 03:44:56;;;;;;;;;;;4.40;91.20;;;;;;5115758;28;19940;-88
2023/03/07 03:47:22;;;;;;;;;;;4.50;91.00;;;;;;5115655;28;19937;-89
2023/03/07 03:49:47;;;;;;;;;;;4.60;91.10;;;;;;5101387;28;19949;-88
2023/03/07 03:52:13;;;;;;;;;;;4.70;91.20;;;;;;5095190;28;19937;-88
2023/03/07 03:54:38;;;;;;;;;;;4.50;89.50;;;;;;5095191;28;19938;-87
2023/03/07 03:57:04;;;;;;;;;;;4.40;91.00;;;;;;5095040;28;19944;-88
2023/03/07 03:59:29;;;;;;;;;;;4.40;90.00;;;;;;5105685;28;20292;-88
2023/03/07 04:01:55;;;;;;;;;;;4.20;89.10;;;;;;5115334;28;20340;-87
2023/03/07 04:04:21;;;;;;;;;;;4.40;90.10;;;;;;5115132;28;20070;-87
2023/03/07 04:06:47;;;;;;;;;;;4.50;91.00;;;;;;5115525;28;19986;-87
2023/03/07 04:09:12;;;;;;;;;;;4.50;91.30;;;;;;5106424;28;19951;-88
2023/03/07 04:11:38;;;;;;;;;;;4.60;91.40;;;;;;5094890;28;20372;-88
2023/03/07 04:14:03;;;;;;;;;;;4.40;90.60;;;;;;5094741;28;19938;-88
2023/03/07 04:16:29;;;;;;;;;;;4.30;90.00;;;;;;5094710;28;19983;-88
2023/03/07 04:18:54;;;;;;;;;;;4.20;89.70;;;;;;5077458;28;20016;-88
2023/03/07 04:21:21;;;;;;;;;;;4.20;89.80;;;;;;5094650;28;19941;-88
2023/03/07 04:23:48;;;;;;;;;;;4.20;90.00;;;;;;5094537;28;19942;-88
2023/03/07 04:26:14;;;;;;;;;;;4.10;90.40;;;;;;5094531;28;19942;-88
2023/03/07 04:28:44;;;;;;;;;;;4.10;90.50;;;;;;5097599;28;20111;-88
2023/03/07 04:31:13;;;;;;;;;;;4.10;90.60;;;;;;5115082;28;19987;-88
2023/03/07 04:33:39;;;;;;;;;;;4.10;91.10;;;;;;5114745;28;19948;-88
2023/03/07 04:36:05;;;;;;;;;;;4.10;91.30;;;;;;5114764;28;19937;-88
2023/03/07 04:38:30;;;;;;;;;;;4.20;91.60;;;;;;5108218;28;20403;-88
2023/03/07 04:40:56;;;;;;;;;;;4.10;91.90;;;;;;5094293;28;19943;-87
2023/03/07 04:43:22;;;;;;;;;;;4.10;92.20;;;;;;5094205;28;19942;-87
2023/03/07 04:45:47;;;;;;;;;;;4.20;92.80;;;;;;5094479;28;19938;-88
2023/03/07 04:48:13;;;;;;;;;;;4.40;93.20;;;;;;5093960;28;20040;-88
2023/03/07 04:50:38;;;;;;;;;;;4.50;93.50;;;;;;5114472;28;20389;-88
2023/03/07 04:53:04;;;;;;;;;;;4.70;93.60;;;;;;5114268;28;19953;-88
2023/03/07 04:55:29;;;;;;;;;;;4.80;93.40;;;;;;5114401;28;19937;-88
2023/03/07 04:57:56;;;;;;;;;;;4.80;92.50;;;;;;5111984;28;19977;-88
2023/03/07 05:00:22;;;;;;;;;;;4.80;91.90;;;;;;5093855;28;20030;-87
2023/03/07 05:02:48;;;;;;;;;;;4.80;92.10;;;;;;5093672;28;19977;-87
2023/03/07 05:05:14;;;;;;;;;;;4.80;92.00;;;;;;5093827;28;19988;-88
2023/03/07 05:07:40;;;;;;;;;;;4.80;91.50;;;;;;5094047;28;19949;-88
2023/03/07 05:10:06;;;;;;;;;;;4.80;90.80;;;;;;5109674;28;20379;-88
2023/03/07 05:12:31;;;;;;;;;;;4.80;91.10;;;;;;5114027;28;20313;-88
2023/03/07 05:14:57;;;;;;;;;;;4.90;91.30;;;;;;5113985;28;19937;-88
2023/03/07 05:17:22;;;;;;;;;;;4.80;91.10;;;;;;5113966;28;19957;-88
2023/03/07 05:19:48;;;;;;;;;;;4.70;90.50;;;;;;5097556;28;20431;-87
2023/03/07 05:22:13;;;;;;;;;;;4.50;90.00;;;;;;5093569;28;19932;-88
2023/03/07 05:24:39;;;;;;;;;;;4.50;90.90;;;;;;5093561;28;20443;-87
2023/03/07 05:27:04;;;;;;;;;;;4.50;91.10;;;;;;5093532;28;20401;-88
2023/03/07 05:29:30;;;;;;;;;;;4.50;90.70;;;;;;5097522;28;20565;-87
2023/03/07 05:31:57;;;;;;;;;;;4.50;91.20;;;;;;5093261;28;20390;-88
2023/03/07 05:34:23;;;;;;;;;;;4.40;91.20;;;;;;5093423;28;19995;-88
2023/03/07 05:36:48;;;;;;;;;;;4.40;91.10;;;;;;5093404;28;20396;-88
2023/03/07 05:39:15;;;;;;;;;;;4.50;91.20;;;;;;5093008;28;20028;-87
2023/03/07 05:41:40;;;;;;;;;;;4.40;90.60;;;;;;5112397;28;20359;-87
2023/03/07 05:44:06;;;;;;;;;;;4.40;90.50;;;;;;5113659;28;19939;-88
2023/03/07 05:46:32;;;;;;;;;;;4.50;90.70;;;;;;5113608;28;19990;-88
2023/03/07 05:48:57;;;;;;;;;;;4.50;91.10;;;;;;5112802;28;19990;-88
2023/03/07 05:51:23;;;;;;;;;;;4.50;91.40;;;;;;5092868;28;19945;-87
2023/03/07 05:53:48;;;;;;;;;;;4.60;91.50;;;;;;5092525;28;20012;-88
2023/03/07 05:56:14;;;;;;;;;;;4.90;91.60;;;;;;5092775;28;19942;-87
2023/03/07 05:58:39;;;;;;;;;;;5.10;91.70;;;;;;5092923;28;19959;-88
2023/03/07 06:01:05;;;;;;;;;;;5.20;91.90;;;;;;5092490;28;19953;-88
2023/03/07 06:03:30;;;;;;;;;;;5.30;91.50;;;;;;5092393;28;20411;-88
2023/03/07 06:05:56;;;;;;;;;;;5.30;90.80;;;;;;5074226;28;20033;-88
2023/03/07 06:08:21;;;;;;;;;;;5.40;90.50;;;;;;5092709;28;19989;-87
2023/03/07 06:10:50;;;;;;;;;;;5.50;90.30;;;;;;5096930;28;19945;-88
2023/03/07 06:13:21;;;;;;;;;;;5.50;89.60;;;;;;5093012;28;19941;-88
2023/03/07 06:15:53;;;;;;;;;;;5.40;88.80;;;;;;5092519;28;20360;-88
2023/03/07 06:18:19;;;;;;;;;;;5.30;89.10;;;;;;5091179;28;20394;-88
2023/03/07 06:20:53;;;;;;;;;;;5.30;89.20;;;;;;5091553;28;19946;-88
2023/03/07 06:23:19;;;;;;;;;;;5.30;89.40;;;;;;5091411;28;19949;-87
2023/03/07 06:25:44;;;;;;;;;;;5.40;89.80;;;;;;5089853;28;19949;-87
2023/03/07 06:28:10;;;;;;;;;;;5.50;90.00;;;;;;5089586;28;19982;-88
2023/03/07 06:30:35;;;;;;;;;;;5.50;90.10;;;;;;5067657;28;19942;-88
2023/03/07 06:33:01;;;;;;;;;;;5.60;90.20;;;;;;5075336;28;20280;-88
2023/03/07 06:35:27;;;;;;;;;;;5.70;90.10;;;;;;5091188;28;21183;-88
2023/03/07 06:37:52;;;;;;;;;;;5.90;89.60;;;;;;5071893;28;20482;-89
2023/03/07 06:40:18;;;;;;;;;;;5.90;89.10;;;;;;5092246;28;19964;-88
2023/03/07 06:42:43;;;;;;;;;;;5.70;88.20;;;;;;5089148;28;20322;-87
2023/03/07 06:45:09;;;;;;;;;;;5.40;87.20;;;;;;5090000;28;20030;-88
2023/03/07 06:47:34;;;;;;;;;;;5.30;88.30;;;;;;5083204;28;20282;-87
2023/03/07 06:50:01;;;;;;;;;;;5.10;89.50;;;;;;5090505;28;19978;-87
2023/03/07 06:52:26;;;;;;;;;;;5.10;91.00;;;;;;5102670;28;19997;-88
2023/03/07 06:54:52;;;;;;;;;;;5.20;91.90;;;;;;5076824;28;20008;-87
2023/03/07 06:57:17;;;;;;;;;;;5.20;92.30;;;;;;5094496;28;19948;-88
2023/03/07 06:59:43;;;;;;;;;;;5.30;92.50;;;;;;5092572;28;19949;-88
2023/03/07 07:02:12;;;;;;;;;;;5.30;92.70;;;;;;5096440;28;19947;-88
2023/03/07 07:04:37;;;;;;;;;;;5.40;92.80;;;;;;5084373;22;19982;-87
2023/03/07 07:07:03;;;;;;;;;;;5.60;92.80;;;;;;5076212;28;19953;-87
2023/03/07 07:09:28;;;;;;;;;;;5.80;92.60;;;;;;5074227;28;19941;-88
2023/03/07 07:11:54;;;;;;;;;;;6.10;92.40;;;;;;5070548;28;19941;-88
2023/03/07 07:14:20;;;;;;;;;;;6.20;91.70;;;;;;5062767;28;20069;-88
2023/03/07 07:16:46;;;;;;;;;;;6.10;91.50;;;;;;5073303;28;19943;-88
2023/03/07 07:19:12;;;;;;;;;;;6.10;91.40;;;;;;5077983;28;19971;-87
2023/03/07 07:21:37;;;;;;;;;;;6.10;91.60;;;;;;5071900;28;20446;-88
2023/03/07 07:24:03;;;;;;;;;;;6.30;91.80;;;;;;5080225;28;19940;-88
2023/03/07 07:26:29;;;;;;;;;;;6.40;91.90;;;;;;5077190;28;19950;-88
2023/03/07 07:28:54;;;;;;;;;;;6.40;91.70;;;;;;5064935;28;19975;-87
2023/03/07 07:31:20;;;;;;;;;;;6.50;91.70;;;;;;5075829;28;20006;-88
2023/03/07 07:33:45;;;;;;;;;;;6.60;91.70;;;;;;5070717;28;19951;-88
2023/03/07 07:36:11;;;;;;;;;;;6.70;91.80;;;;;;5075108;28;19946;-87
2023/03/07 07:38:37;;;;;;;;;;;6.80;91.60;;;;;;5080873;28;19959;-87
2023/03/07 07:41:03;;;;;;;;;;;6.90;91.60;;;;;;5078282;28;20387;-87
2023/03/07 07:43:29;;;;;;;;;;;6.90;91.10;;;;;;5078737;28;19942;-88
2023/03/07 07:45:55;;;;;;;;;;;7.00;91.10;;;;;;5069367;28;19978;-88
2023/03/07 07:48:21;;;;;;;;;;;7.20;91.10;;;;;;5072786;28;20346;-87
2023/03/07 07:50:46;;;;;;;;;;;7.30;90.70;;;;;;5059509;28;21453;-88
2023/03/07 07:53:12;;;;;;;;;;;7.40;90.10;;;;;;5073112;28;19964;-87
2023/03/07 07:55:38;;;;;;;;;;;7.60;90.00;;;;;;5079749;28;19946;-88
2023/03/07 07:58:04;;;;;;;;;;;7.70;89.50;;;;;;5081005;28;19962;-88
2023/03/07 08:00:30;;;;;;;;;;;7.80;89.50;;;;;;5092381;28;19950;-88
2023/03/07 08:02:55;;;;;;;;;;;8.00;89.40;;;;;;5089458;28;19971;-88
2023/03/07 08:05:21;;;;;;;;;;;8.20;89.10;;;;;;5085354;28;20027;-87
2023/03/07 08:07:47;;;;;;;;;;;8.40;89.10;;;;;;5089599;28;20005;-88
2023/03/07 08:10:16;;;;;;;;;;;8.60;88.10;;;;;;5068331;28;19984;-88
2023/03/07 08:12:51;;;;;;;;;;;8.70;86.80;;;;;;5055536;28;19966;-88
2023/03/07 08:15:18;;;;;;;;;;;8.90;86.60;;;;;;5085167;28;19998;-88
2023/03/07 08:17:44;;;;;;;;;;;9.10;86.20;;;;;;5091199;28;19974;-88
2023/03/07 08:20:09;;;;;;;;;;;9.30;85.60;;;;;;5069360;28;19962;-89
2023/03/07 08:22:35;;;;;;;;;;;9.30;85.60;;;;;;5089384;28;20060;-87
2023/03/07 08:25:03;;;;;;;;;;;9.30;85.20;;;;;;5088044;28;19947;-88
2023/03/07 08:27:28;;;;;;;;;;;9.40;85.90;;;;;;5091076;28;19954;-88
2023/03/07 08:29:54;;;;;;;;;;;9.40;85.60;;;;;;5087227;28;19946;-88
2023/03/07 08:32:19;;;;;;;;;;;9.40;85.30;;;;;;5093023;28;19951;-88
2023/03/07 08:34:45;;;;;;;;;;;9.50;84.50;;;;;;5085614;28;20419;-88
2023/03/07 08:37:10;;;;;;;;;;;9.60;84.30;;;;;;5082994;28;19941;-88
2023/03/07 08:39:36;;;;;;;;;;;9.80;84.20;;;;;;5090427;28;20036;-88
2023/03/07 08:42:01;;;;;;;;;;;9.80;83.40;;;;;;5080504;28;19947;-88
2023/03/07 08:44:27;;;;;;;;;;;10.00;83.20;;;;;;5089746;28;20036;-89
2023/03/07 08:46:52;;;;;;;;;;;10.20;82.40;;;;;;5072461;28;20407;-89
2023/03/07 08:49:18;;;;;;;;;;;10.40;81.90;;;;;;5085506;28;19951;-89
2023/03/07 08:51:46;;;;;;;;;;;10.60;81.40;;;;;;5093035;28;20315;-88
2023/03/07 08:54:11;;;;;;;;;;;10.70;81.30;;;;;;5091239;28;19957;-89
2023/03/07 08:56:37;;;;;;;;;;;11.00;79.70;;;;;;5086815;28;19945;-89
2023/03/07 08:59:02;;;;;;;;;;;11.30;78.20;;;;;;5079117;28;19983;-88
2023/03/07 09:01:28;;;;;;;;;;;11.40;77.70;;;;;;5089271;28;19949;-89
2023/03/07 09:03:53;;;;;;;;;;;11.40;77.50;;;;;;5079580;28;20013;-89
2023/03/07 09:06:21;;;;;;;;;;;11.50;77.20;;;;;;5083250;28;19997;-89
2023/03/07 09:08:47;;;;;;;;;;;11.70;76.50;;;;;;5086902;28;20407;-88
2023/03/07 09:11:14;;;;;;;;;;;11.40;76.40;;;;;;5085849;28;19946;-88
2023/03/07 09:13:39;;;;;;;;;;;11.30;77.40;;;;;;5079209;28;19947;-88
2023/03/07 09:16:05;;;;;;;;;;;11.30;77.80;;;;;;5081381;28;19945;-88
2023/03/07 09:18:31;;;;;;;;;;;11.30;77.80;;;;;;5086182;28;19969;-88
2023/03/07 09:21:00;;;;;;;;;;;11.30;78.40;;;;;;5066392;28;20005;-88
2023/03/07 09:23:26;;;;;;;;;;;11.20;78.80;;;;;;5081389;28;19945;-88
2023/03/07 09:25:51;;;;;;;;;;;11.20;78.90;;;;;;5084305;28;19946;-88
2023/03/07 09:28:17;;;;;;;;;;;11.10;78.50;;;;;;5088741;28;19946;-89
2023/03/07 09:30:42;;;;;;;;;;;11.20;79.10;;;;;;5081109;28;20413;-88
2023/03/07 09:33:08;;;;;;;;;;;11.30;79.00;;;;;;5069520;28;19975;-89
2023/03/07 09:35:34;;;;;;;;;;;11.40;80.10;;;;;;5064451;28;20018;-90
2023/03/07 09:37:59;;;;;;;;;;;11.50;79.50;;;;;;5084636;28;19939;-89
2023/03/07 09:40:25;;;;;;;;;;;11.50;79.00;;;;;;5084828;28;19960;-89
2023/03/07 09:43:01;;;;;;;;;;;11.60;78.70;;;;;;5088308;28;19944;-89
2023/03/07 09:45:50;;;;;;;;;;;11.70;78.20;;;;;;5083667;28;20037;-89
2023/03/07 09:48:34;;;;;;;;;;;11.90;78.80;;;;;;5086874;28;19947;-90
2023/03/07 09:51:15;;;;;;;;;;;12.30;78.60;;;;;;5088206;28;19944;-89
2023/03/07 09:53:41;;;;;;;;;;;12.60;76.10;;;;;;5080894;28;20408;-89
2023/03/07 09:56:11;;;;;;;;;;;12.90;74.90;;;;;;5071884;28;19950;-88
2023/03/07 09:58:39;;;;;;;;;;;12.70;75.10;;;;;;5085261;28;19970;-88
2023/03/07 10:01:07;;;;;;;;;;;12.40;75.70;;;;;;5083329;28;20018;-88
2023/03/07 10:03:37;;;;;;;;;;;12.40;75.80;;;;;;5087465;28;19995;-88
2023/03/07 10:06:13;;;;;;;;;;;12.40;74.90;;;;;;5086605;28;20038;-88
2023/03/07 10:08:38;;;;;;;;;;;12.60;75.50;;;;;;5088113;28;19994;-89
2023/03/07 10:11:24;;;;;;;;;;;12.80;74.80;;;;;;5076974;28;20372;-89
2023/03/07 10:14:02;;;;;;;;;;;12.90;75.80;;;;;;5087902;28;20397;-89
2023/03/07 10:16:44;;;;;;;;;;;13.00;74.10;;;;;;5090469;28;20297;-89
2023/03/07 10:19:16;;;;;;;;;;;13.10;74.00;;;;;;5083487;28;19969;-89
2023/03/07 10:22:00;;;;;;;;;;;13.10;73.60;;;;;;5087926;28;20058;-89
2023/03/07 10:24:30;;;;;;;;;;;13.30;74.70;;;;;;5087622;28;20397;-89
2023/03/07 10:26:58;;;;;;;;;;;13.40;73.50;;;;;;5087336;28;19944;-90
2023/03/07 10:29:26;;;;;;;;;;;13.60;71.60;;;;;;5072927;28;19967;-90
2023/03/07 10:32:01;;;;;;;;;;;13.50;70.20;;;;;;5089571;28;19952;-89
2023/03/07 10:34:28;;;;;;;;;;;13.60;69.90;;;;;;5091092;28;20044;-90
2023/03/07 10:36:56;;;;;;;;;;;13.90;70.90;;;;;;5092705;28;20359;-88
2023/03/07 10:39:37;;;;;;;;;;;14.30;68.20;;;;;;5086811;28;19966;-87
2023/03/07 10:42:02;;;;;;;;;;;13.90;68.40;;;;;;5090405;28;19948;-87
2023/03/07 10:44:31;;;;;;;;;;;13.60;69.50;;;;;;5079180;28;19947;-88
2023/03/07 10:46:58;;;;;;;;;;;13.40;69.50;;;;;;5090938;28;20317;-88
2023/03/07 10:49:31;;;;;;;;;;;13.50;70.60;;;;;;5094783;28;19944;-88
2023/03/07 10:51:56;;;;;;;;;;;13.60;69.70;;;;;;5094615;28;19947;-88
2023/03/07 10:54:27;;;;;;;;;;;13.80;69.80;;;;;;5075564;28;20047;-88
2023/03/07 10:57:04;;;;;;;;;;;13.70;69.00;;;;;;5091855;28;19979;-89
2023/03/07 10:59:30;;;;;;;;;;;14.00;67.90;;;;;;5075873;28;19960;-89
2023/03/07 11:01:57;;;;;;;;;;;14.20;68.80;;;;;;5087974;28;19951;-88
2023/03/07 11:04:24;;;;;;;;;;;14.40;68.10;;;;;;5074368;28;20055;-88
2023/03/07 11:06:49;;;;;;;;;;;14.30;68.60;;;;;;5092596;28;19983;-88
2023/03/07 11:09:25;;;;;;;;;;;14.40;66.90;;;;;;5093806;28;19985;-89
2023/03/07 11:12:11;;;;;;;;;;;14.40;67.90;;;;;;5093837;28;20000;-89
2023/03/07 11:14:46;;;;;;;;;;;14.60;67.50;;;;;;5095820;28;19943;-89
2023/03/07 11:17:23;;;;;;;;;;;14.80;67.80;;;;;;5092917;28;19951;-89
2023/03/07 11:19:55;;;;;;;;;;;14.90;66.30;;;;;;5095821;28;20023;-88
2023/03/07 11:22:28;;;;;;;;;;;15.10;66.60;;;;;;5095830;28;20011;-88
2023/03/07 11:24:56;;;;;;;;;;;15.30;64.80;;;;;;5095742;28;19939;-88
2023/03/07 11:27:41;;;;;;;;;;;15.30;64.60;;;;;;5095723;28;19970;-88
2023/03/07 11:30:25;;;;;;;;;;;15.20;64.40;;;;;;5084604;28;20415;-87
2023/03/07 11:33:09;;;;;;;;;;;15.10;64.20;;;;;;5095914;28;19941;-88
2023/03/07 11:35:37;;;;;;;;;;;15.20;65.80;;;;;;5095575;28;19942;-89
2023/03/07 11:38:08;;;;;;;;;;;15.40;64.30;;;;;;5094948;28;19993;-89
2023/03/07 11:40:39;;;;;;;;;;;15.30;63.90;;;;;;5095740;28;19972;-89
2023/03/07 11:43:15;;;;;;;;;;;15.30;64.40;;;;;;5095465;28;19939;-89
2023/03/07 11:45:49;;;;;;;;;;;15.60;63.00;;;;;;5095460;28;19943;-90
2023/03/07 11:48:15;;;;;;;;;;;15.80;61.90;;;;;;5095065;28;20000;-89
2023/03/07 11:50:43;;;;;;;;;;;16.20;62.20;;;;;;5095316;28;19937;-90
2023/03/07 11:53:20;;;;;;;;;;;16.60;59.80;;;;;;5095195;28;19956;-90
2023/03/07 11:55:54;;;;;;;;;;;17.00;60.10;;;;;;5077062;28;19939;-89
2023/03/07 11:58:45;;;;;;;;;;;17.10;58.70;;;;;;5094577;28;20421;-89
2023/03/07 12:01:11;;;;;;;;;;;17.10;60.60;;;;;;5077210;28;19937;-88
2023/03/07 12:03:43;;;;;;;;;;;16.80;59.60;;;;;;5094854;28;20434;-89
2023/03/07 12:06:08;;;;;;;;;;;16.70;60.80;;;;;;5094974;28;19940;-88
2023/03/07 12:08:37;;;;;;;;;;;16.70;59.30;;;;;;5094604;28;19953;-88
2023/03/07 12:11:08;;;;;;;;;;;16.50;58.90;;;;;;5076760;28;20027;-88
2023/03/07 12:13:43;;;;;;;;;;;16.80;61.50;;;;;;5094893;28;19951;-89
2023/03/07 12:16:08;;;;;;;;;;;17.10;58.80;;;;;;5094007;28;19951;-88
2023/03/07 12:18:43;;;;;;;;;;;17.10;58.10;;;;;;5094080;28;19958;-89
2023/03/07 12:21:33;;;;;;;;;;;16.90;57.20;;;;;;5092880;28;20022;-88
2023/03/07 12:24:01;;;;;;;;;;;16.50;57.80;;;;;;5094067;28;19947;-89
2023/03/07 12:26:32;;;;;;;;;;;16.90;55.30;;;;;;5093396;28;20011;-89
2023/03/07 12:29:16;;;;;;;;;;;17.80;52.50;;;;;;5095734;28;20002;-88
2023/03/07 12:31:44;;;;;;;;;;;18.00;53.50;;;;;;5085410;28;19987;-88
2023/03/07 12:34:09;;;;;;;;;;;17.90;53.20;;;;;;5085291;28;19950;-88
2023/03/07 12:36:39;;;;;;;;;;;17.70;53.60;;;;;;5088256;28;19947;-88
2023/03/07 12:39:10;;;;;;;;;;;17.40;54.60;;;;;;5084513;28;19957;-88
2023/03/07 12:41:47;;;;;;;;;;;17.20;55.20;;;;;;5087945;28;20032;-89
2023/03/07 12:44:15;;;;;;;;;;;17.00;55.90;;;;;;5085344;28;19941;-88
2023/03/07 12:46:53;;;;;;;;;;;16.90;55.60;;;;;;5086229;28;20049;-89
2023/03/07 12:49:25;;;;;;;;;;;17.00;55.10;;;;;;5087785;28;19953;-88
2023/03/07 12:51:56;;;;;;;;;;;17.00;54.60;;;;;;5085978;28;20283;-89
2023/03/07 12:54:27;;;;;;;;;;;16.90;55.30;;;;;;5083743;28;20064;-89
2023/03/07 12:57:05;;;;;;;;;;;16.60;54.40;;;;;;5086027;28;19949;-89
2023/03/07 12:59:34;;;;;;;;;;;16.40;54.40;;;;;;5086850;28;19963;-89
2023/03/07 13:02:09;;;;;;;;;;;16.80;55.20;;;;;;5083965;28;19949;-90
2023/03/07 13:04:36;;;;;;;;;;;17.00;55.00;;;;;;5089665;28;19971;-89
2023/03/07 13:07:05;;;;;;;;;;;17.00;53.30;;;;;;5082750;28;19950;-89
2023/03/07 13:09:32;;;;;;;;;;;16.50;56.90;;;;;;5088724;28;19952;-90
2023/03/07 13:12:08;;;;;;;;;;;16.30;56.70;;;;;;5089293;28;19953;-89
2023/03/07 13:14:38;;;;;;;;;;;16.20;56.50;;;;;;5088535;28;19960;-89
2023/03/07 13:17:07;;;;;;;;;;;15.70;53.20;;;;;;5090629;28;20297;-89
2023/03/07 13:19:32;;;;;;;;;;;15.20;54.40;;;;;;5086361;28;20002;-89
2023/03/07 13:21:58;;;;;;;;;;;14.90;54.70;;;;;;5086950;28;19981;-89
2023/03/07 13:24:38;;;;;;;;;;;14.90;57.60;;;;;;5085075;28;19953;-90
2023/03/07 13:27:13;;;;;;;;;;;14.90;53.80;;;;;;5087483;28;20018;-89
2023/03/07 13:29:57;;;;;;;;;;;14.80;57.70;;;;;;5088617;28;21245;-89
2023/03/07 13:32:41;;;;;;;;;;;14.90;56.10;;;;;;5088639;28;19942;-89
2023/03/07 13:35:08;;;;;;;;;;;14.80;56.80;;;;;;5078906;28;20047;-89
2023/03/07 13:37:47;;;;;;;;;;;14.70;54.00;;;;;;5086785;28;20006;-90
2023/03/07 13:40:24;;;;;;;;;;;14.70;56.40;;;;;;5082648;28;19942;-89
2023/03/07 13:42:50;;;;;;;;;;;14.60;55.00;;;;;;5086081;28;19945;-89
2023/03/07 13:45:33;;;;;;;;;;;14.90;55.70;;;;;;5085489;28;19948;-89
2023/03/07 13:47:59;;;;;;;;;;;15.10;55.30;;;;;;5089092;28;19966;-89
2023/03/07 13:50:45;;;;;;;;;;;15.10;56.20;;;;;;5088638;28;20397;-89
2023/03/07 13:53:15;;;;;;;;;;;15.30;55.10;;;;;;5074127;28;19967;-90
2023/03/07 13:55:45;;;;;;;;;;;15.10;55.60;;;;;;5082474;28;19950;-89
2023/03/07 13:58:31;;;;;;;;;;;15.10;53.50;;;;;;5085563;28;20006;-90
2023/03/07 14:00:58;;;;;;;;;;;15.40;55.30;;;;;;5084744;28;20439;-90
2023/03/07 14:03:26;;;;;;;;;;;15.70;52.70;;;;;;5090121;28;20048;-89
2023/03/07 14:05:52;;;;;;;;;;;15.70;52.10;;;;;;5091434;28;20043;-89
2023/03/07 14:08:21;;;;;;;;;;;15.90;52.20;;;;;;5093255;28;20030;-89
2023/03/07 14:10:47;;;;;;;;;;;15.80;51.30;;;;;;5086198;28;19993;-90
2023/03/07 14:13:19;;;;;;;;;;;15.60;52.10;;;;;;5072793;28;19946;-89
2023/03/07 14:15:46;;;;;;;;;;;15.60;52.80;;;;;;5084339;28;19952;-90
2023/03/07 14:18:17;;;;;;;;;;;15.70;52.50;;;;;;5089274;28;19964;-89
2023/03/07 14:20:52;;;;;;;;;;;16.00;52.90;;;;;;5070400;28;20517;-90
2023/03/07 14:23:36;;;;;;;;;;;16.20;51.10;;;;;;5088183;28;19986;-90
2023/03/07 14:26:12;;;;;;;;;;;16.00;54.20;;;;;;5090321;28;19942;-90
2023/03/07 14:28:45;;;;;;;;;;;16.10;53.00;;;;;;5092524;28;19948;-90
2023/03/07 14:31:19;;;;;;;;;;;16.00;52.10;;;;;;5088673;28;20394;-89
2023/03/07 14:33:44;;;;;;;;;;;15.70;52.00;;;;;;5089436;28;20011;-89